x

South Hatteras - 225 South Of Cape Hatteras (41002) Wave Buoy

1:50 - Fri 27th Mar 2015 All times are EDT. -4 hours from GMT.

  • Sig Wave height 10.8ft
  • Swell Direction
  • Peak Period 8s
  • Average Period 7s
  • Wind
    25mph, 31mph gusts
  • Sea Temp 69°f
  • Air Temp 71°f
  • Sea Pressure 1007.9mb
  • South Hatteras - 225 South Of Cape Hatteras
  • South Hatteras - 225 South Of Cape Hatteras

More Historic Weather Station data

Upgrade to MSW Pro to gain access to the past 30 days of data for over 8000 Wavebouys and Weather Stations around the globe.

Join Pro

Comparision Forecast

View Surf forecast
   
ven. 03/27 1:50 11ft 8s 7s 25 31 mph 1007.9mb 69f 71f
12:50 11ft 8s 7s 29 36 mph 1007.7mb 69f 72f
11:50 10.5ft 8s 7s 27 34 mph 1008.3mb 69f 71f
10:50 9ft 8s 6s 27 34 mph 1008.2mb 69f 72f
9:50 9ft 8s 7s 22 27 mph 1008.9mb 69f 71f
8:50 10.5ft 8s 7s 16 20 mph 1010mb 69f 70f
7:50 9ft 7s 6s 16 20 mph 1010.1mb 69f 71f
6:50 9ft 7s 6s 20 25 mph 1010.1mb 69f 71f
5:50 8ft 7s 6s 25 29 mph 1009.6mb 69f 71f
4:50 8.5ft 8s 6s 22 29 mph 1009.8mb 69f 71f
3:50 9ft 8s 6s 18 20 mph 1011.2mb 69f 68f
2:50 7.5ft 7s 6s 22 29 mph 1011.7mb 69f 69f
1:50 8ft 8s 6s 22 27 mph 1012.8mb 69f 70f
12:50 8ft 7s 6s 25 29 mph 1013.3mb 69f 70f
jeu. 03/26 11:50 7ft 7s 6s 20 25 mph 1014.2mb 69f 71f
10:50 8ft 7s 6s 22 29 mph 1014.6mb 69f 71f
9:50 8ft 7s 6s 22 27 mph 1014.9mb 69f 71f
8:50 7ft 7s 6s 20 25 mph 1015.5mb 69f 71f
7:50 7.5ft 8s 6s 20 25 mph 1015.6mb 69f 71f
6:50 7.5ft 7s 6s 20 25 mph 1015.5mb 69f 71f
5:50 7ft 7s 6s 20 25 mph 1015.9mb 69f 70f
4:50 7ft 7s 6s 20 25 mph 1016.1mb 69f 71f
3:50 7.5ft 7s 6s 22 27 mph 1016.5mb 69f 70f
2:50 7ft 6s 6s 25 31 mph 1017mb 69f 70f
1:50 7ft 6s 5s 27 31 mph 1018.3mb 69f 70f
12:50 8ft 7s 6s 27 31 mph 1018.8mb 69f 70f
11:50 6.5ft 7s 5s 27 34 mph 1020mb 69f 70f
10:50 7ft 7s 5s 27 31 mph 1020.4mb 69f 70f
9:50 6ft 7s 5s 25 29 mph 1020.5mb 69f 70f
8:50 6ft 7s 5s 22 29 mph 1021.1mb 69f 70f
7:50 6ft 7s 5s 25 29 mph 1021.1mb 69f 70f
6:50 6.5ft 7s 5s 22 27 mph 1021mb 70f 69f
5:50 6.5ft 7s 5s 22 29 mph 1021.2mb 70f 69f
4:50 7ft 7s 5s 22 27 mph 1021.4mb 70f 69f
3:50 7ft 7s 5s 22 27 mph 1021.6mb 70f 69f
2:50 6ft 6s 5s 25 29 mph 1022.1mb 70f 69f
1:50 6ft 6s 5s 22 29 mph 1022.6mb 70f 69f
12:50 6ft 6s 5s 25 29 mph 1023mb 70f 69f
mer. 03/25 11:50 5.5ft 6s 5s 22 27 mph 1023.8mb 70f 69f
10:50 5.5ft 5s 5s 22 27 mph 1024.3mb 70f 69f
9:50 5ft 5s 5s 22 27 mph 1024.3mb 70f 69f
8:50 5ft 5s 5s 22 27 mph 1024mb 70f 69f
7:50 5ft 6s 5s 25 27 mph 1023.7mb 69f 68f
6:50 4.5ft 8s 5s 27 34 mph 1022.5mb 69f 68f
5:50 5ft 6s 5s 20 25 mph 1023.6mb 70f 69f
4:50 5ft 7s 5s 18 20 mph 1024.5mb 71f 69f
3:50 5ft 8s 5s 18 20 mph 1024.6mb 71f 69f
2:50 5ft 5s 5s 20 25 mph 1024.2mb 71f 69f
1:50 5ft 8s 5s 20 22 mph 1024.7mb 71f 68f
12:50 5ft 8s 5s 18 22 mph 1025.5mb 71f 68f
11:50 5ft 6s 5s 18 20 mph 1025.5mb 71f 68f
10:50 5ft 8s 5s 20 22 mph 1025.1mb 71f 68f
9:50 5ft 8s 5s 20 25 mph 1024.9mb 71f 68f
8:50 5ft 8s 5s 20 22 mph 1024.5mb 71f 68f
7:50 5ft 8s 5s 20 22 mph 1024.1mb 71f 67f
6:50 5ft 8s 5s 18 22 mph 1023.5mb 71f 67f
5:50 5ft 9s 5s 20 22 mph 1022.9mb 71f 67f
4:50 5ft 8s 5s 18 20 mph 1022.9mb 71f 67f
3:50 5ft 8s 5s 18 20 mph 1022.8mb 71f 67f
2:50 5ft 8s 5s 18 20 mph 1022.9mb 71f 67f
1:50 5ft 8s 6s 16 20 mph 1023.2mb 71f 67f
12:50 5ft 8s 6s 16 20 mph 1023.4mb 71f 67f
mar. 03/24 11:50 5ft 9s 5s 16 20 mph 1023.4mb 71f 67f
10:50 5ft 8s 5s 18 20 mph 1023.1mb 71f 67f
9:50 5.5ft 8s 6s 18 22 mph 1023.5mb 71f 67f
8:50 5.5ft 8s 6s 16 18 mph 1023.4mb 71f 67f
7:50 5.5ft 8s 6s 16 22 mph 1023mb 71f 67f
6:50 5ft 8s 5s 16 20 mph 1022.4mb 71f 67f
5:50 5ft 8s 5s 18 20 mph 1021.3mb 71f 67f
4:50 5.5ft 8s 6s 18 22 mph 1020.8mb 71f 67f
3:50 5.5ft 8s 6s 18 22 mph 1020.7mb 71f 67f
2:50 6ft 7s 6s 18 22 mph 1020.9mb 71f 66f
1:50 6ft 8s 6s 18 22 mph 1021.5mb 70f 66f
12:50 6.5ft 8s 6s 18 22 mph 1021.8mb 70f 66f
11:50 6ft 8s 6s 20 25 mph 1021.8mb 70f 66f
10:50 6.5ft 8s 6s 20 25 mph 1021.4mb 70f 66f
9:50 7ft 8s 6s 20 25 mph 1021mb 69f 66f
8:50 7ft 9s 6s 18 22 mph 1020.6mb 69f 66f
7:50 7ft 9s 6s 18 22 mph 1020.1mb 69f 66f
6:50 7ft 9s 6s 20 22 mph 1019.3mb 69f 65f
5:50 7.5ft 8s 6s 20 22 mph 1018.1mb 69f 65f
4:50 8ft 9s 6s 18 22 mph 1017.6mb 69f 65f
3:50 8ft 9s 6s 20 22 mph 1017.5mb 69f 65f
2:50 10ft 8s 7s 22 25 mph 1017.6mb 69f 65f
1:50 10.5ft 9s 6s 22 29 mph 1017.2mb 69f 65f
12:50 10.5ft 9s 6s 25 29 mph 1016.7mb 69f 65f
lun. 03/23 11:50 11.5ft 9s 7s 27 31 mph 1016.4mb 69f 65f
10:50 10ft 9s 6s 29 34 mph 1016.2mb 69f 65f
9:50 9ft 8s 6s 29 34 mph 1015.8mb 69f 64f
8:50 8.5ft 8s 6s 31 38 mph 1014.8mb 69f 64f
7:50 8ft 8s 6s 29 36 mph 1014.1mb 69f 64f